createdAt,value
2023-02-12T00:01:28.738Z,7.60
2023-02-12T00:13:55.102Z,7.50
2023-02-12T00:16:24.885Z,7.70
2023-02-12T00:18:54.234Z,7.80
2023-02-12T00:33:48.909Z,7.40
2023-02-12T00:36:18.727Z,7.60
2023-02-12T00:43:45.814Z,7.80
2023-02-12T00:53:39.682Z,8.20
2023-02-12T01:01:06.415Z,7.30
2023-02-12T01:11:02.138Z,8.20
2023-02-12T01:18:33.709Z,7.80
2023-02-12T01:35:56.119Z,7.50
2023-02-12T01:45:57.149Z,7.50
2023-02-12T01:48:29.010Z,7.70
2023-02-12T01:51:00.390Z,7.60
2023-02-12T01:53:34.272Z,7.40
2023-02-12T01:56:04.437Z,7.30
2023-02-12T01:58:37.046Z,7.60
2023-02-12T02:01:08.172Z,7.50
2023-02-12T02:03:38.975Z,6.90
2023-02-12T02:06:12.871Z,7.40
2023-02-12T02:19:20.716Z,7.20
2023-02-12T02:22:10.004Z,7.40
2023-02-12T02:25:10.557Z,11.10
2023-02-12T02:30:26.736Z,7.30
2023-02-12T02:33:06.072Z,7.20
2023-02-12T02:35:40.446Z,7.20
2023-02-12T02:38:19.482Z,7.70
2023-02-12T02:40:54.340Z,7.40
2023-02-12T02:43:29.234Z,7.70
2023-02-12T02:51:06.471Z,7.50
2023-02-12T02:53:38.632Z,4.30
2023-02-12T02:56:10.364Z,7.60
2023-02-12T02:58:42.481Z,7.00
2023-02-12T03:01:19.111Z,7.40
2023-02-12T03:03:51.387Z,6.90
2023-02-12T03:06:26.520Z,7.00
2023-02-12T03:08:58.253Z,7.30
2023-02-12T03:11:29.241Z,7.30
2023-02-12T03:14:01.994Z,7.40
2023-02-12T03:16:34.841Z,7.30
2023-02-12T03:19:08.054Z,7.50
2023-02-12T03:21:44.909Z,7.40
2023-02-12T03:24:17.686Z,7.40
2023-02-12T03:26:49.626Z,6.80
2023-02-12T03:31:57.128Z,7.10
2023-02-12T03:34:32.314Z,7.40
2023-02-12T03:37:05.842Z,7.10
2023-02-12T03:39:41.484Z,4.50
2023-02-12T03:42:14.290Z,6.60
2023-02-12T03:49:56.669Z,6.60
2023-02-12T03:54:53.567Z,6.80
2023-02-12T03:57:25.496Z,6.70
2023-02-12T03:59:54.025Z,7.30
2023-02-12T04:02:23.954Z,6.80
2023-02-12T04:04:53.549Z,7.30
2023-02-12T04:15:27.287Z,7.30
2023-02-12T04:18:03.514Z,6.90
2023-02-12T04:20:42.457Z,6.70
2023-02-12T04:23:22.989Z,7.30
2023-02-12T04:26:03.669Z,6.50
2023-02-12T04:28:39.572Z,6.80
2023-02-12T04:31:14.598Z,6.80
2023-02-12T04:33:50.119Z,7.10
2023-02-12T04:36:22.714Z,7.40
2023-02-12T04:48:54.038Z,6.90
2023-02-12T05:01:15.643Z,6.80
2023-02-12T05:06:13.435Z,6.80
2023-02-12T05:11:11.336Z,6.80
2023-02-12T05:23:37.638Z,6.90
2023-02-12T05:26:07.645Z,6.80
2023-02-12T05:31:06.296Z,7.30
2023-02-12T05:41:07.976Z,6.70
2023-02-12T05:46:06.415Z,6.80
2023-02-12T05:48:35.454Z,6.90
2023-02-12T05:51:04.300Z,6.90
2023-02-12T06:01:14.799Z,7.50
2023-02-12T06:06:11.992Z,7.00
2023-02-12T06:11:13.686Z,6.70
2023-02-12T06:16:18.957Z,7.10
2023-02-12T06:23:43.979Z,7.40
2023-02-12T06:26:13.773Z,7.00
2023-02-12T06:31:19.402Z,6.60
2023-02-12T06:48:39.704Z,6.80
2023-02-12T06:51:10.540Z,7.50
2023-02-12T06:56:11.314Z,7.50
2023-02-12T06:58:42.858Z,6.80
2023-02-12T07:11:07.962Z,9.00
2023-02-12T07:16:07.747Z,7.60
2023-02-12T07:26:04.022Z,7.40
2023-02-12T07:33:32.198Z,7.60
2023-02-12T07:36:01.594Z,7.50
2023-02-12T07:38:30.108Z,7.40
2023-02-12T07:50:53.730Z,7.60
2023-02-12T07:58:18.520Z,7.30
2023-02-12T08:03:14.964Z,7.40
2023-02-12T08:05:42.989Z,8.60
2023-02-12T08:08:12.425Z,7.80
2023-02-12T08:18:05.426Z,7.70
2023-02-12T08:20:35.522Z,8.60
2023-02-12T08:25:33.267Z,8.60
2023-02-12T08:32:58.436Z,8.40
2023-02-12T08:37:55.379Z,8.80
2023-02-12T08:42:54.185Z,9.40
2023-02-12T08:57:44.300Z,9.40
2023-02-12T09:00:14.781Z,9.10
2023-02-12T09:10:09.303Z,9.50
2023-02-12T09:15:06.187Z,8.80
2023-02-12T09:17:36.184Z,10.00
2023-02-12T09:34:57.606Z,9.00
2023-02-12T09:37:26.101Z,9.50
2023-02-12T09:42:34.156Z,9.60
2023-02-12T09:45:11.750Z,9.30
2023-02-12T09:47:46.162Z,10.40
2023-02-12T09:50:42.175Z,10.00
2023-02-12T09:53:13.708Z,10.10
2023-02-12T09:55:41.992Z,9.40
2023-02-12T09:58:15.853Z,10.20
2023-02-12T10:03:16.564Z,9.70
2023-02-12T10:05:50.442Z,9.90
2023-02-12T10:08:41.819Z,9.50
2023-02-12T10:11:26.329Z,9.50
2023-02-12T10:14:05.705Z,9.40
2023-02-12T10:16:49.148Z,9.50
2023-02-12T10:19:37.471Z,10.10
2023-02-12T10:22:18.572Z,10.40
2023-02-12T10:25:00.282Z,10.00
2023-02-12T10:27:39.232Z,10.00
2023-02-12T10:30:17.650Z,9.90
2023-02-12T10:32:47.749Z,9.60
2023-02-12T10:35:17.603Z,11.50
2023-02-12T10:37:53.576Z,10.40
2023-02-12T10:40:26.340Z,10.00
2023-02-12T10:45:26.122Z,10.20
2023-02-12T10:48:09.363Z,10.40
2023-02-12T10:50:57.014Z,10.40
2023-02-12T10:53:33.538Z,11.10
2023-02-12T10:56:19.576Z,11.50
2023-02-12T10:58:59.364Z,11.20
2023-02-12T11:01:29.703Z,11.20
2023-02-12T11:04:00.369Z,11.00
2023-02-12T11:06:30.323Z,11.10
2023-02-12T11:09:00.471Z,11.40
2023-02-12T11:11:31.620Z,11.40
2023-02-12T11:14:03.684Z,11.20
2023-02-12T11:16:34.331Z,11.50
2023-02-12T11:19:05.800Z,11.30
2023-02-12T11:21:35.304Z,11.20
2023-02-12T11:24:30.591Z,11.30
2023-02-12T11:27:22.645Z,11.30
2023-02-12T11:30:12.382Z,11.00
2023-02-12T11:35:15.423Z,11.90
2023-02-12T11:37:45.617Z,11.40
2023-02-12T11:40:26.259Z,11.80
2023-02-12T11:42:57.769Z,11.20
2023-02-12T11:45:30.969Z,11.30
2023-02-12T11:50:29.830Z,11.20
2023-02-12T11:53:01.122Z,11.50
2023-02-12T11:55:33.834Z,11.60
2023-02-12T11:58:04.839Z,11.40
2023-02-12T12:00:38.109Z,11.20
2023-02-12T12:03:14.432Z,11.50
2023-02-12T12:05:48.191Z,11.20
2023-02-12T12:08:24.961Z,11.20
2023-02-12T12:11:05.183Z,11.10
2023-02-12T12:13:39.745Z,11.20
2023-02-12T12:16:30.124Z,12.00
2023-02-12T12:19:27.714Z,11.90
2023-02-12T12:22:05.122Z,11.40
2023-02-12T12:24:42.271Z,12.20
2023-02-12T12:27:34.836Z,11.20
2023-02-12T12:30:08.518Z,11.30
2023-02-12T12:32:38.925Z,11.60
2023-02-12T12:35:12.025Z,11.10
2023-02-12T12:37:46.673Z,11.30
2023-02-12T12:40:37.054Z,12.20
2023-02-12T12:43:14.312Z,12.20
2023-02-12T12:46:15.390Z,11.70
2023-02-12T12:48:57.854Z,11.60
2023-02-12T12:51:39.769Z,11.90
2023-02-12T12:54:20.607Z,11.90
2023-02-12T12:57:04.065Z,11.60
2023-02-12T12:59:56.865Z,12.20
2023-02-12T13:03:06.783Z,11.50
2023-02-12T13:06:24.885Z,11.90
2023-02-12T13:09:22.935Z,11.70
2023-02-12T13:12:06.333Z,11.30
2023-02-12T13:14:45.099Z,11.10
2023-02-12T13:17:22.326Z,11.30
2023-02-12T13:20:02.762Z,11.20
2023-02-12T13:22:39.502Z,11.50
2023-02-12T13:25:22.927Z,10.70
2023-02-12T13:27:53.028Z,10.90
2023-02-12T13:30:26.112Z,11.30
2023-02-12T13:33:07.610Z,11.50
2023-02-12T13:35:39.257Z,10.80
2023-02-12T13:38:08.685Z,11.10
2023-02-12T13:40:37.544Z,11.10
2023-02-12T13:43:16.509Z,11.60
2023-02-12T13:45:51.601Z,11.20
2023-02-12T13:48:41.665Z,10.80
2023-02-12T13:51:20.286Z,11.10
2023-02-12T13:53:59.107Z,11.80
2023-02-12T13:56:35.506Z,11.10
2023-02-12T13:59:03.828Z,10.80
2023-02-12T14:01:47.625Z,10.80
2023-02-12T14:04:29.979Z,10.70
2023-02-12T14:07:01.937Z,10.50
2023-02-12T14:09:35.298Z,10.90
2023-02-12T14:12:05.464Z,11.10
2023-02-12T14:14:37.456Z,10.80
2023-02-12T14:17:51.830Z,11.20
2023-02-12T14:20:28.678Z,10.90
2023-02-12T14:23:34.638Z,10.60
2023-02-12T14:26:06.191Z,10.00
2023-02-12T14:28:48.455Z,10.60
2023-02-12T14:31:31.861Z,10.30
2023-02-12T14:34:51.962Z,10.40
2023-02-12T14:37:37.751Z,11.10
2023-02-12T14:40:45.267Z,10.20
2023-02-12T14:43:33.065Z,10.90
2023-02-12T14:46:36.058Z,9.90
2023-02-12T14:49:06.212Z,10.80
2023-02-12T14:51:42.038Z,10.50
2023-02-12T14:54:17.713Z,9.80
2023-02-12T14:56:49.130Z,10.70
2023-02-12T14:59:21.061Z,8.80
2023-02-12T15:01:50.471Z,9.80
2023-02-12T15:04:25.254Z,10.00
2023-02-12T15:06:58.071Z,9.40
2023-02-12T15:09:33.109Z,9.70
2023-02-12T15:12:07.141Z,10.50
2023-02-12T15:14:41.205Z,9.90
2023-02-12T15:17:13.297Z,9.80
2023-02-12T15:19:48.544Z,10.10
2023-02-12T15:22:22.323Z,10.10
2023-02-12T15:24:51.908Z,9.70
2023-02-12T15:27:21.795Z,10.10
2023-02-12T15:29:53.562Z,10.00
2023-02-12T15:32:26.491Z,10.10
2023-02-12T15:34:55.559Z,9.30
2023-02-12T15:37:27.266Z,10.30
2023-02-12T15:40:03.696Z,10.50
2023-02-12T15:42:34.433Z,10.00
2023-02-12T15:45:23.991Z,9.50
2023-02-12T15:48:11.843Z,10.20
2023-02-12T15:50:50.974Z,9.90
2023-02-12T15:55:50.836Z,9.70
2023-02-12T15:58:25.353Z,9.80
2023-02-12T16:00:55.601Z,9.80
2023-02-12T16:03:26.473Z,9.60
2023-02-12T16:05:58.828Z,9.50
2023-02-12T16:10:57.604Z,10.30
2023-02-12T16:13:31.314Z,9.50
2023-02-12T16:16:08.233Z,10.00
2023-02-12T16:21:07.016Z,10.00
2023-02-12T16:26:07.059Z,9.60
2023-02-12T16:31:12.293Z,9.30
2023-02-12T16:33:47.862Z,9.60
2023-02-12T16:36:30.450Z,9.50
2023-02-12T16:39:00.745Z,9.40
2023-02-12T16:41:32.378Z,9.40
2023-02-12T16:44:22.804Z,9.20
2023-02-12T16:49:22.324Z,9.30
2023-02-12T16:51:51.459Z,9.40
2023-02-12T16:54:30.989Z,9.00
2023-02-12T16:57:01.542Z,9.40
2023-02-12T17:02:01.135Z,8.60
2023-02-12T17:14:27.701Z,9.30
2023-02-12T17:24:24.317Z,9.00
2023-02-12T17:31:53.644Z,9.30
2023-02-12T17:49:14.882Z,9.30
2023-02-12T18:11:33.099Z,9.10
2023-02-12T18:14:02.248Z,8.70
2023-02-12T18:16:32.249Z,8.90
2023-02-12T18:19:01.675Z,8.80
2023-02-12T18:23:59.450Z,8.20
2023-02-12T18:41:25.864Z,8.20
2023-02-12T18:43:54.793Z,9.00
2023-02-12T18:46:24.419Z,8.70
2023-02-12T18:51:22.353Z,8.50
2023-02-12T18:53:55.065Z,8.60
2023-02-12T18:56:24.959Z,8.80
2023-02-12T18:58:57.564Z,9.20
2023-02-12T19:11:25.322Z,9.20
2023-02-12T19:13:53.634Z,9.00
2023-02-12T19:46:17.199Z,8.40
2023-02-12T19:51:16.221Z,8.20
2023-02-12T19:56:14.650Z,8.00
2023-02-12T20:13:40.323Z,8.40
2023-02-12T20:16:10.373Z,7.90
2023-02-12T20:21:11.890Z,8.50
2023-02-12T20:23:40.387Z,8.20
2023-02-12T20:28:39.715Z,8.20
2023-02-12T20:46:08.685Z,8.50
2023-02-12T20:53:37.017Z,8.00
2023-02-12T20:58:34.861Z,8.40
2023-02-12T21:01:07.200Z,7.90
2023-02-12T21:11:03.971Z,8.10
2023-02-12T21:16:08.754Z,8.50
2023-02-12T21:26:05.367Z,7.90
2023-02-12T21:31:08.000Z,8.50
2023-02-12T21:38:35.550Z,7.80
2023-02-12T21:41:13.917Z,8.60
2023-02-12T21:43:43.651Z,8.00
2023-02-12T21:53:45.640Z,8.10
2023-02-12T21:56:15.609Z,7.80
2023-02-12T22:01:14.675Z,7.90
2023-02-12T22:11:11.484Z,7.80
2023-02-12T22:13:41.201Z,7.80
2023-02-12T22:18:38.561Z,9.50
2023-02-12T22:26:06.705Z,8.10
2023-02-12T22:28:35.688Z,8.00
2023-02-12T22:46:01.302Z,7.90
2023-02-12T22:48:30.845Z,8.10
2023-02-12T23:05:51.848Z,7.90
2023-02-12T23:20:56.749Z,8.20
2023-02-12T23:33:21.127Z,8.30
2023-02-12T23:38:19.906Z,7.90
2023-02-12T23:40:48.945Z,7.90
2023-02-12T23:45:46.143Z,8.10
2023-02-12T23:48:14.353Z,8.00
2023-02-12T23:50:42.800Z,7.40
2023-02-12T23:53:11.390Z,7.40
2023-02-12T23:55:41.375Z,7.80
